Time;durP1;ratioP1;P1;durP2;ratioP2;P2;SDS_P1;SDS_P2;PMS_P1;PMS_P2;Temp;Humidity;BMP_temperature;BMP_pressure;BME280_temperature;BME280_humidity;BME280_pressure;Samples;Min_cycle;Max_cycle;Signal;HPM_P1;HPM_P2
2021/03/26 00:00:12;;;;;;;0.93;0.35;;;11.50;55.70;;;;;;4992707;28;20046;-81
2021/03/26 00:02:38;;;;;;;4.40;0.38;;;11.50;55.80;;;;;;4993124;28;20037;-80
2021/03/26 00:05:06;;;;;;;0.82;0.60;;;11.50;55.80;;;;;;4976099;28;20061;-80
2021/03/26 00:07:33;;;;;;;5.38;1.05;;;11.50;55.90;;;;;;4993126;28;20026;-80
2021/03/26 00:09:59;;;;;;;1.00;0.22;;;11.40;55.90;;;;;;4994080;28;20395;-80
2021/03/26 00:12:26;;;;;;;1.25;0.45;;;11.50;56.00;;;;;;4976048;28;20034;-80
2021/03/26 00:14:52;;;;;;;1.38;0.45;;;11.40;56.00;;;;;;4993144;28;20030;-80
2021/03/26 00:17:18;;;;;;;0.63;0.22;;;11.40;56.00;;;;;;4992345;28;20045;-81
2021/03/26 00:19:44;;;;;;;0.32;0.30;;;11.50;56.10;;;;;;4992919;28;20030;-80
2021/03/26 00:22:10;;;;;;;2.90;0.30;;;11.50;56.10;;;;;;4993978;28;20026;-80
2021/03/26 00:24:37;;;;;;;0.30;0.10;;;11.50;56.10;;;;;;4991678;28;20023;-80
2021/03/26 00:27:03;;;;;;;0.10;0.10;;;11.50;56.10;;;;;;4992835;28;20069;-80
2021/03/26 00:29:29;;;;;;;1.73;0.20;;;11.50;56.10;;;;;;4993998;28;20030;-80
2021/03/26 00:31:55;;;;;;;0.32;0.22;;;11.50;56.10;;;;;;4992584;28;20034;-80
2021/03/26 00:34:21;;;;;;;0.52;0.00;;;11.50;56.10;;;;;;4992718;28;20034;-80
2021/03/26 00:36:47;;;;;;;0.30;0.03;;;11.60;56.10;;;;;;4975597;28;20034;-80
2021/03/26 00:39:13;;;;;;;1.67;0.32;;;11.60;56.20;;;;;;4975939;28;20034;-80
2021/03/26 00:41:39;;;;;;;0.38;0.20;;;11.60;56.80;;;;;;4992630;28;20032;-80
2021/03/26 00:44:06;;;;;;;0.35;0.13;;;11.60;56.20;;;;;;4992444;28;20055;-81
2021/03/26 00:46:34;;;;;;;1.85;0.30;;;11.60;56.20;;;;;;4992158;28;20042;-80
2021/03/26 00:49:00;;;;;;;3.58;0.63;;;11.60;56.30;;;;;;4992747;28;20046;-80
2021/03/26 00:51:26;;;;;;;0.60;0.10;;;11.60;56.30;;;;;;4991880;28;20031;-80
2021/03/26 00:53:52;;;;;;;0.45;0.20;;;11.60;56.30;;;;;;4992063;28;20038;-80
2021/03/26 00:56:18;;;;;;;0.95;0.25;;;11.60;56.30;;;;;;4973456;28;20487;-80
2021/03/26 00:58:44;;;;;;;1.33;0.25;;;11.60;56.30;;;;;;4982338;28;20042;-80
2021/03/26 01:01:10;;;;;;;3.28;0.35;;;11.60;56.40;;;;;;4991650;28;20041;-80
2021/03/26 01:03:36;;;;;;;7.60;0.30;;;11.60;56.40;;;;;;4991598;28;20038;-80
2021/03/26 01:06:05;;;;;;;0.45;0.22;;;11.60;56.50;;;;;;4994533;28;20046;-80
2021/03/26 01:08:31;;;;;;;0.50;0.08;;;11.60;57.10;;;;;;4995967;28;20026;-79
2021/03/26 01:11:00;;;;;;;11.45;0.32;;;11.70;56.60;;;;;;4978245;28;20050;-80
2021/03/26 01:13:27;;;;;;;0.45;0.20;;;11.70;56.60;;;;;;4996320;28;20027;-80
2021/03/26 01:15:53;;;;;;;1.73;0.70;;;11.70;56.70;;;;;;4994902;28;20034;-81
2021/03/26 01:18:28;;;;;;;1.15;0.20;;;11.70;56.70;;;;;;4964075;28;20065;-80
2021/03/26 01:20:55;;;;;;;0.90;0.20;;;11.70;56.70;;;;;;4995855;28;20475;-80
2021/03/26 01:23:21;;;;;;;0.80;0.32;;;11.70;56.80;;;;;;4996218;28;20027;-80
2021/03/26 01:25:47;;;;;;;0.30;0.10;;;11.70;56.80;;;;;;4979882;28;20050;-80
2021/03/26 01:28:19;;;;;;;3.28;0.40;;;11.60;56.80;;;;;;4980573;28;20390;-80
2021/03/26 01:30:45;;;;;;;0.70;0.28;;;11.70;56.90;;;;;;4991161;28;20038;-80
2021/03/26 01:33:11;;;;;;;0.55;0.10;;;11.70;56.90;;;;;;4961668;28;20042;-80
2021/03/26 01:35:38;;;;;;;0.55;0.30;;;11.70;57.00;;;;;;4979256;28;20026;-80
2021/03/26 01:38:06;;;;;;;0.52;0.10;;;11.60;57.00;;;;;;4997079;28;20022;-80
2021/03/26 01:40:37;;;;;;;0.82;0.13;;;11.70;57.10;;;;;;4995756;28;20046;-80
2021/03/26 01:43:08;;;;;;;0.57;0.20;;;11.70;57.10;;;;;;4995823;28;20027;-80
2021/03/26 01:45:34;;;;;;;1.35;0.30;;;11.70;57.10;;;;;;4994169;28;20046;-80
2021/03/26 01:48:01;;;;;;;0.15;0.10;;;11.70;57.10;;;;;;4976538;28;20043;-80
2021/03/26 01:50:29;;;;;;;0.85;0.13;;;11.70;57.20;;;;;;4990789;28;20467;-80
2021/03/26 01:52:55;;;;;;;1.75;0.20;;;11.70;57.20;;;;;;4995530;28;20030;-80
2021/03/26 01:55:34;;;;;;;0.00;0.00;;;11.70;57.20;;;;;;4995771;28;20034;-80
2021/03/26 01:58:00;;;;;;;0.10;0.00;;;11.70;57.30;;;;;;4995709;28;20037;-80
2021/03/26 02:00:35;;;;;;;0.20;0.03;;;11.70;57.50;;;;;;4993290;28;20042;-80
2021/03/26 02:03:23;;;;;;;0.60;0.38;;;11.70;57.40;;;;;;4976139;28;20039;-80
2021/03/26 02:05:50;;;;;;;0.80;0.10;;;11.70;57.40;;;;;;4992136;28;20046;-81
2021/03/26 02:08:20;;;;;;;0.77;0.10;;;11.70;57.40;;;;;;4976194;28;20495;-80
2021/03/26 02:10:46;;;;;;;0.65;0.30;;;11.70;57.50;;;;;;4968145;28;20051;-82
2021/03/26 02:13:25;;;;;;;0.00;0.00;;;11.70;57.60;;;;;;4995346;28;20462;-80
2021/03/26 02:15:51;;;;;;;6.10;0.52;;;11.70;57.60;;;;;;4990342;28;20054;-80
2021/03/26 02:18:37;;;;;;;0.20;0.10;;;11.70;58.20;;;;;;4979074;28;20065;-80
2021/03/26 02:21:06;;;;;;;0.47;0.20;;;11.60;57.70;;;;;;4994666;28;20029;-80
2021/03/26 02:23:33;;;;;;;1.02;0.20;;;11.60;57.70;;;;;;4994942;28;20395;-80
2021/03/26 02:26:00;;;;;;;0.50;0.10;;;11.60;57.80;;;;;;4994886;28;20034;-80
2021/03/26 02:28:26;;;;;;;0.70;0.32;;;11.50;57.90;;;;;;4994980;28;20045;-80
2021/03/26 02:30:54;;;;;;;1.33;0.40;;;11.50;57.90;;;;;;4977280;28;20038;-80
2021/03/26 02:33:20;;;;;;;1.15;0.65;;;11.50;58.00;;;;;;4978182;28;20026;-80
2021/03/26 02:35:49;;;;;;;1.00;0.38;;;11.40;58.00;;;;;;4975475;28;20041;-80
2021/03/26 02:38:26;;;;;;;1.40;0.20;;;11.40;58.10;;;;;;4987548;28;20033;-80
2021/03/26 02:41:09;;;;;;;0.40;0.25;;;11.40;58.10;;;;;;4978798;28;20042;-81
2021/03/26 02:44:13;;;;;;;0.88;0.30;;;11.40;58.10;;;;;;4996223;28;20022;-81
2021/03/26 02:46:48;;;;;;;0.50;0.10;;;11.40;58.20;;;;;;4957668;28;20047;-80
2021/03/26 02:49:15;;;;;;;0.30;0.03;;;11.40;58.10;;;;;;4938518;28;20507;-81
2021/03/26 02:52:10;;;;;;;0.52;0.32;;;11.40;58.20;;;;;;4937984;29;20042;-80
2021/03/26 02:54:47;;;;;;;1.20;0.30;;;11.40;58.30;;;;;;4952876;29;20065;-80
2021/03/26 02:57:25;;;;;;;0.13;0.00;;;11.30;58.30;;;;;;4954918;28;20083;-81
2021/03/26 03:00:20;;;;;;;0.35;0.10;;;11.30;58.40;;;;;;4903461;29;20370;-80
2021/03/26 03:02:48;;;;;;;0.93;0.40;;;11.30;58.60;;;;;;4932079;28;20039;-82
2021/03/26 03:05:39;;;;;;;0.20;0.00;;;11.20;58.50;;;;;;4936588;28;20043;-82
2021/03/26 03:08:12;;;;;;;1.70;0.05;;;11.10;58.60;;;;;;4953774;28;20039;-80
2021/03/26 03:10:43;;;;;;;0.30;0.10;;;11.10;58.70;;;;;;4954525;28;20055;-80
2021/03/26 03:13:16;;;;;;;10.32;0.30;;;11.00;58.70;;;;;;4941237;28;20046;-82
2021/03/26 03:15:56;;;;;;;0.32;0.03;;;11.00;58.80;;;;;;4950580;28;20027;-80
2021/03/26 03:18:27;;;;;;;0.20;0.10;;;10.90;58.90;;;;;;4970189;28;20038;-80
2021/03/26 03:21:07;;;;;;;0.73;0.30;;;10.80;58.90;;;;;;4944561;28;20027;-80
2021/03/26 03:23:51;;;;;;;0.20;0.10;;;10.80;59.00;;;;;;4955510;28;20427;-81
2021/03/26 03:26:40;;;;;;;0.32;0.10;;;10.70;59.10;;;;;;4981687;28;20046;-80
2021/03/26 03:29:17;;;;;;;0.60;0.15;;;10.70;59.10;;;;;;4976150;28;20042;-80
2021/03/26 03:31:52;;;;;;;3.53;0.38;;;10.70;59.20;;;;;;4986917;28;20423;-82
2021/03/26 03:34:43;;;;;;;0.30;0.10;;;10.60;59.20;;;;;;4972690;28;20038;-80
2021/03/26 03:37:29;;;;;;;0.30;0.10;;;10.60;59.30;;;;;;4976801;28;20476;-80
2021/03/26 03:39:58;;;;;;;1.33;0.43;;;10.50;59.30;;;;;;4991338;28;20491;-80
2021/03/26 03:42:39;;;;;;;5.80;0.15;;;10.60;59.30;;;;;;4991994;28;20034;-80
2021/03/26 03:45:31;;;;;;;0.05;0.00;;;10.50;59.30;;;;;;4976910;28;20054;-80
2021/03/26 03:48:08;;;;;;;0.52;0.20;;;10.40;59.30;;;;;;4993038;28;20049;-81
2021/03/26 03:50:59;;;;;;;0.00;0.00;;;10.40;59.40;;;;;;4974110;28;20039;-80
2021/03/26 03:53:59;;;;;;;0.50;0.28;;;10.40;59.50;;;;;;4988716;28;20027;-80
2021/03/26 03:56:35;;;;;;;0.70;0.40;;;10.40;59.50;;;;;;4989084;28;20054;-81
2021/03/26 03:59:33;;;;;;;0.90;0.25;;;10.30;59.50;;;;;;4993235;28;20022;-80
2021/03/26 04:02:10;;;;;;;0.60;0.22;;;10.20;59.60;;;;;;4978850;28;20038;-82
2021/03/26 04:04:43;;;;;;;4.40;0.22;;;10.20;59.60;;;;;;4993323;28;20026;-80
2021/03/26 04:07:20;;;;;;;0.50;0.30;;;10.20;59.70;;;;;;4993049;28;20030;-80
2021/03/26 04:09:53;;;;;;;0.68;0.22;;;10.20;59.70;;;;;;4977019;28;20049;-80
2021/03/26 04:12:32;;;;;;;0.38;0.10;;;10.20;59.70;;;;;;4991981;28;20022;-80
2021/03/26 04:15:08;;;;;;;1.83;0.20;;;10.20;59.70;;;;;;4963372;28;20042;-80
2021/03/26 04:17:43;;;;;;;3.90;0.35;;;10.20;59.70;;;;;;4991999;28;20026;-80
2021/03/26 04:20:15;;;;;;;1.48;0.38;;;10.20;59.70;;;;;;4978142;28;20030;-81
2021/03/26 04:22:44;;;;;;;0.60;0.20;;;10.30;59.60;;;;;;4993217;28;20030;-80
2021/03/26 04:25:18;;;;;;;5.72;0.20;;;10.30;59.60;;;;;;4993006;28;20042;-80
2021/03/26 04:27:45;;;;;;;0.47;0.20;;;10.40;59.60;;;;;;4988583;28;20038;-81
2021/03/26 04:30:17;;;;;;;10.10;0.55;;;10.40;59.60;;;;;;4957187;28;20518;-79
2021/03/26 04:32:43;;;;;;;2.00;0.60;;;10.40;59.60;;;;;;4960864;28;20039;-80
2021/03/26 04:35:11;;;;;;;0.75;0.08;;;10.50;59.60;;;;;;4992670;28;20031;-80
2021/03/26 04:37:45;;;;;;;0.30;0.15;;;10.40;59.50;;;;;;4992746;28;20026;-80
2021/03/26 04:40:14;;;;;;;0.82;0.00;;;10.50;59.60;;;;;;4992599;28;20019;-81
2021/03/26 04:42:40;;;;;;;1.88;0.10;;;10.50;59.60;;;;;;4976095;28;20027;-81
2021/03/26 04:45:29;;;;;;;0.75;0.50;;;10.60;59.70;;;;;;4992800;28;20054;-80
2021/03/26 04:48:01;;;;;;;0.38;0.22;;;10.60;59.70;;;;;;4971965;28;20050;-80
2021/03/26 04:50:30;;;;;;;0.63;0.13;;;10.50;59.70;;;;;;4972162;28;20134;-80
2021/03/26 04:53:02;;;;;;;0.25;0.17;;;10.50;59.70;;;;;;4970652;28;20035;-80
2021/03/26 04:55:31;;;;;;;0.47;0.10;;;10.50;59.80;;;;;;4940886;28;20070;-80
2021/03/26 04:58:05;;;;;;;0.45;0.40;;;10.60;59.80;;;;;;4940284;28;20030;-80
2021/03/26 05:00:46;;;;;;;0.32;0.08;;;10.60;59.80;;;;;;4954379;28;20426;-82
2021/03/26 05:03:31;;;;;;;0.20;0.17;;;10.60;59.80;;;;;;4942194;28;20030;-81
2021/03/26 05:06:04;;;;;;;0.35;0.08;;;10.60;59.80;;;;;;4940312;28;20049;-81
2021/03/26 05:08:31;;;;;;;0.85;0.20;;;10.60;59.80;;;;;;4940934;28;20023;-81
2021/03/26 05:10:57;;;;;;;0.10;0.00;;;10.60;59.80;;;;;;4955944;28;20034;-80
2021/03/26 05:13:32;;;;;;;0.63;0.00;;;10.60;59.80;;;;;;4972525;28;20125;-80
2021/03/26 05:16:27;;;;;;;0.93;0.17;;;10.60;59.90;;;;;;4941737;28;20027;-80
2021/03/26 05:19:03;;;;;;;0.03;0.00;;;10.60;60.00;;;;;;4966836;28;20039;-80
2021/03/26 05:21:39;;;;;;;0.40;0.20;;;10.60;60.00;;;;;;4938026;28;20038;-80
2021/03/26 05:24:14;;;;;;;2.78;0.32;;;10.60;60.00;;;;;;4947141;28;20047;-80
2021/03/26 05:26:40;;;;;;;0.00;0.00;;;10.60;60.00;;;;;;4993508;28;20506;-80
2021/03/26 05:29:08;;;;;;;1.70;0.10;;;10.60;60.00;;;;;;4976034;28;20519;-80
2021/03/26 05:32:12;;;;;;;0.35;0.10;;;10.60;60.00;;;;;;4991853;28;20395;-80
2021/03/26 05:34:55;;;;;;;0.20;0.05;;;10.60;60.10;;;;;;4979968;28;20038;-80
2021/03/26 05:37:31;;;;;;;1.55;0.10;;;10.70;60.10;;;;;;4947405;28;20038;-80
2021/03/26 05:40:36;;;;;;;0.10;0.10;;;10.60;60.00;;;;;;4992085;28;20022;-80
2021/03/26 05:43:50;;;;;;;0.15;0.15;;;10.60;60.20;;;;;;4950642;28;20076;-80
2021/03/26 05:46:34;;;;;;;0.05;0.00;;;10.60;60.30;;;;;;4883160;29;20536;-81
2021/03/26 05:49:20;;;;;;;0.00;0.00;;;10.60;60.30;;;;;;4928299;29;20050;-81
2021/03/26 05:52:14;;;;;;;2.90;0.20;;;10.50;60.40;;;;;;4942148;28;20048;-81
2021/03/26 05:54:59;;;;;;;4.75;0.25;;;10.50;60.50;;;;;;4917015;29;20044;-80
2021/03/26 05:57:43;;;;;;;0.75;0.28;;;10.40;60.50;;;;;;4918426;29;20044;-80
2021/03/26 06:00:27;;;;;;;0.88;0.25;;;10.40;60.60;;;;;;4916997;29;20509;-80
2021/03/26 06:03:05;;;;;;;1.70;0.05;;;10.40;60.60;;;;;;4932852;29;20623;-80
2021/03/26 06:05:31;;;;;;;1.25;0.32;;;10.40;60.60;;;;;;4933078;29;20032;-80
2021/03/26 06:08:16;;;;;;;2.47;0.35;;;10.40;60.60;;;;;;4917159;29;20429;-80
2021/03/26 06:11:07;;;;;;;0.22;0.00;;;10.40;60.60;;;;;;4932612;29;20146;-82
2021/03/26 06:13:54;;;;;;;0.00;0.00;;;10.50;60.70;;;;;;4875418;29;20080;-80
2021/03/26 06:16:51;;;;;;;0.38;0.10;;;10.50;60.70;;;;;;4931771;29;20040;-80
2021/03/26 06:19:23;;;;;;;0.20;0.00;;;10.50;60.70;;;;;;4898962;28;20526;-80
2021/03/26 06:22:07;;;;;;;0.80;0.40;;;10.50;60.60;;;;;;4958656;28;20496;-80
2021/03/26 06:24:42;;;;;;;2.53;0.57;;;10.50;60.60;;;;;;4977052;28;20038;-82
2021/03/26 06:27:20;;;;;;;1.23;0.17;;;10.60;60.60;;;;;;4994741;28;20478;-80
2021/03/26 06:30:05;;;;;;;0.17;0.05;;;10.60;60.60;;;;;;4996083;28;20030;-81
2021/03/26 06:33:05;;;;;;;0.17;0.03;;;10.60;60.50;;;;;;4995372;28;20038;-80
2021/03/26 06:35:37;;;;;;;0.52;0.30;;;10.70;60.60;;;;;;4996061;28;20035;-80
2021/03/26 06:38:32;;;;;;;1.17;0.30;;;10.70;60.50;;;;;;4995964;28;20037;-80
2021/03/26 06:41:45;;;;;;;0.75;0.10;;;10.70;60.60;;;;;;4979116;28;20045;-80
2021/03/26 06:44:30;;;;;;;0.00;0.00;;;10.70;60.50;;;;;;4974044;28;20115;-80
2021/03/26 06:47:04;;;;;;;0.30;0.10;;;10.80;60.50;;;;;;4973538;28;20043;-81
2021/03/26 06:49:46;;;;;;;0.22;0.05;;;10.80;60.40;;;;;;4956331;28;20039;-80
2021/03/26 06:52:15;;;;;;;0.10;0.00;;;10.80;60.30;;;;;;4959131;28;20538;-80
2021/03/26 06:55:16;;;;;;;0.10;0.00;;;10.90;60.40;;;;;;4956769;28;20138;-80
2021/03/26 06:58:09;;;;;;;1.40;0.20;;;10.90;60.60;;;;;;4914544;28;20036;-80
2021/03/26 07:01:00;;;;;;;0.10;0.08;;;10.80;60.60;;;;;;4911166;29;20040;-80
2021/03/26 07:03:26;;;;;;;2.55;0.05;;;10.80;60.70;;;;;;4932664;29;20605;-82
2021/03/26 07:06:29;;;;;;;0.40;0.20;;;10.80;60.90;;;;;;4935307;29;20055;-80
2021/03/26 07:09:30;;;;;;;0.00;0.00;;;10.70;61.10;;;;;;4918809;29;20043;-80
2021/03/26 07:12:15;;;;;;;0.30;0.30;;;10.70;61.30;;;;;;4929486;29;20036;-80
2021/03/26 07:14:59;;;;;;;6.43;0.17;;;10.70;61.50;;;;;;4919098;28;20040;-80
2021/03/26 07:17:46;;;;;;;1.63;0.60;;;10.60;61.40;;;;;;4912413;29;20032;-80
2021/03/26 07:20:35;;;;;;;0.03;0.00;;;10.70;61.60;;;;;;4916190;29;20040;-80
2021/03/26 07:23:37;;;;;;;0.20;0.00;;;10.70;61.50;;;;;;4931748;29;20047;-80
2021/03/26 07:26:21;;;;;;;0.17;0.00;;;10.80;61.40;;;;;;4915879;29;20039;-80
2021/03/26 07:28:47;;;;;;;0.40;0.10;;;10.80;61.30;;;;;;4931922;29;20040;-81
2021/03/26 07:31:22;;;;;;;3.90;0.82;;;10.80;61.30;;;;;;4900665;29;20149;-79
2021/03/26 07:34:00;;;;;;;0.22;0.17;;;10.90;61.30;;;;;;4924220;28;20065;-81
2021/03/26 07:37:11;;;;;;;0.65;0.22;;;11.00;61.20;;;;;;4991475;28;20452;-80
2021/03/26 07:39:47;;;;;;;0.52;0.13;;;11.10;61.10;;;;;;4991398;28;20038;-80
2021/03/26 07:42:35;;;;;;;0.65;0.17;;;11.20;60.80;;;;;;4975576;28;20482;-80
2021/03/26 07:45:07;;;;;;;0.15;0.10;;;11.40;60.70;;;;;;4971915;28;20035;-80
2021/03/26 07:47:50;;;;;;;0.00;0.00;;;11.50;60.60;;;;;;4966727;28;20047;-80
2021/03/26 07:50:28;;;;;;;0.32;0.00;;;11.60;60.30;;;;;;4979558;28;20043;-80
2021/03/26 07:53:15;;;;;;;0.68;0.25;;;11.70;60.20;;;;;;4972813;28;20034;-81
2021/03/26 07:56:02;;;;;;;0.30;0.00;;;11.80;60.00;;;;;;4973119;28;20031;-80
2021/03/26 07:59:18;;;;;;;0.45;0.10;;;12.00;59.90;;;;;;4959656;28;20022;-80
2021/03/26 08:01:47;;;;;;;0.10;0.00;;;12.20;59.80;;;;;;4895997;29;20029;-81
2021/03/26 08:04:17;;;;;;;0.00;0.00;;;12.40;59.60;;;;;;4896598;29;20043;-80
2021/03/26 08:06:55;;;;;;;1.08;0.00;;;12.50;59.40;;;;;;4894811;29;20053;-81
2021/03/26 08:09:35;;;;;;;0.00;0.00;;;12.70;59.40;;;;;;4897701;29;20044;-80
2021/03/26 08:12:21;;;;;;;0.95;0.10;;;12.80;59.30;;;;;;4911301;29;20071;-80
2021/03/26 08:15:21;;;;;;;0.00;0.00;;;12.90;59.20;;;;;;4911627;29;20442;-81
2021/03/26 08:17:56;;;;;;;0.10;0.00;;;13.20;59.10;;;;;;4909997;29;20076;-80
2021/03/26 08:20:45;;;;;;;0.25;0.00;;;13.40;58.90;;;;;;4925940;28;20040;-80
2021/03/26 08:23:35;;;;;;;0.32;0.13;;;13.60;58.80;;;;;;4923046;28;20039;-80
2021/03/26 08:26:19;;;;;;;0.03;0.00;;;13.70;58.70;;;;;;4913727;29;20135;-80
2021/03/26 08:29:16;;;;;;;0.70;0.00;;;13.80;58.70;;;;;;4925847;29;20051;-80
2021/03/26 08:32:04;;;;;;;0.00;0.00;;;14.00;58.60;;;;;;4913291;28;20043;-81
2021/03/26 08:35:10;;;;;;;0.00;0.00;;;14.10;58.70;;;;;;4916444;29;20039;-80
2021/03/26 08:38:05;;;;;;;0.43;0.10;;;14.10;58.80;;;;;;4948983;28;20042;-80
2021/03/26 08:41:00;;;;;;;0.47;0.20;;;14.10;58.80;;;;;;4979839;28;20030;-80
2021/03/26 08:43:27;;;;;;;0.08;0.00;;;14.20;58.80;;;;;;4944604;28;20038;-82
2021/03/26 08:46:02;;;;;;;0.65;0.35;;;14.20;58.80;;;;;;4991199;28;20058;-80
2021/03/26 08:48:49;;;;;;;0.28;0.10;;;14.20;58.80;;;;;;4990044;28;20046;-84
2021/03/26 08:51:34;;;;;;;0.10;0.00;;;14.30;58.90;;;;;;4993362;28;20036;-80
2021/03/26 08:54:23;;;;;;;0.05;0.00;;;14.40;58.90;;;;;;4993801;28;20030;-80
2021/03/26 08:56:52;;;;;;;0.40;0.10;;;14.40;58.90;;;;;;4992795;28;20030;-81
2021/03/26 08:59:25;;;;;;;1.10;0.22;;;14.40;58.90;;;;;;4993727;28;20026;-81
2021/03/26 09:02:23;;;;;;;0.13;0.00;;;14.40;58.90;;;;;;4993108;28;20028;-82
2021/03/26 09:05:13;;;;;;;1.60;0.25;;;14.50;59.00;;;;;;4976180;28;20038;-80
2021/03/26 09:07:48;;;;;;;2.40;0.38;;;14.50;58.90;;;;;;4992664;28;20038;-81
2021/03/26 09:10:14;;;;;;;0.00;0.00;;;14.60;58.90;;;;;;4978367;28;20022;-80
2021/03/26 09:13:11;;;;;;;0.00;0.00;;;14.60;59.00;;;;;;4992800;28;20046;-80
2021/03/26 09:15:59;;;;;;;0.52;0.10;;;14.60;59.00;;;;;;5023289;28;20045;-80
2021/03/26 09:18:37;;;;;;;0.40;0.00;;;14.60;59.00;;;;;;4994717;28;20027;-80
2021/03/26 09:21:28;;;;;;;0.40;0.00;;;14.60;59.00;;;;;;4993256;28;20387;-80
2021/03/26 09:24:09;;;;;;;0.00;0.00;;;14.60;59.00;;;;;;4993455;28;20490;-80
2021/03/26 09:26:51;;;;;;;0.13;0.05;;;14.60;59.00;;;;;;4993644;28;20038;-82
2021/03/26 09:29:43;;;;;;;0.00;0.00;;;14.50;59.10;;;;;;4997226;28;20034;-80
2021/03/26 09:32:19;;;;;;;0.03;0.00;;;14.50;59.10;;;;;;4974949;28;20035;-80
2021/03/26 09:35:00;;;;;;;0.10;0.03;;;14.50;59.10;;;;;;4954259;28;20039;-80
2021/03/26 09:37:29;;;;;;;0.00;0.00;;;14.50;59.10;;;;;;4961291;28;20042;-80
2021/03/26 09:39:58;;;;;;;0.20;0.00;;;14.50;59.10;;;;;;4943015;28;20045;-80
2021/03/26 09:42:33;;;;;;;0.05;0.03;;;14.50;59.10;;;;;;4958746;28;20046;-81
2021/03/26 09:45:16;;;;;;;0.43;0.15;;;14.50;59.10;;;;;;4959077;28;20059;-80
2021/03/26 09:48:01;;;;;;;0.88;0.43;;;14.50;59.10;;;;;;4940995;28;20085;-80
2021/03/26 09:50:41;;;;;;;0.70;0.00;;;14.60;59.00;;;;;;4958251;28;20038;-80
2021/03/26 09:53:12;;;;;;;4.45;0.10;;;14.70;59.00;;;;;;4942953;28;20038;-80
2021/03/26 09:55:39;;;;;;;0.10;0.00;;;14.70;58.90;;;;;;4971715;28;20485;-80
2021/03/26 09:58:31;;;;;;;0.20;0.00;;;14.80;58.90;;;;;;4943242;28;20069;-80
2021/03/26 10:01:49;;;;;;;0.10;0.10;;;14.80;58.80;;;;;;4974160;28;20047;-81
2021/03/26 10:04:20;;;;;;;0.08;0.00;;;14.90;58.70;;;;;;4955888;28;20046;-82
2021/03/26 10:07:15;;;;;;;0.00;0.00;;;14.90;58.60;;;;;;4973907;28;20031;-82
2021/03/26 10:09:45;;;;;;;0.13;0.08;;;14.90;58.50;;;;;;4970590;28;20409;-80
2021/03/26 10:12:21;;;;;;;0.00;0.00;;;15.10;58.50;;;;;;4979785;28;20027;-80
2021/03/26 10:14:54;;;;;;;0.10;0.00;;;15.20;58.40;;;;;;4995181;28;20022;-81
2021/03/26 10:17:47;;;;;;;1.52;0.10;;;15.50;58.00;;;;;;4994520;28;20037;-80
2021/03/26 10:20:31;;;;;;;0.00;0.00;;;15.70;57.70;;;;;;4996400;28;20029;-81
2021/03/26 10:23:20;;;;;;;0.85;0.00;;;15.90;57.40;;;;;;4994996;28;20034;-84
2021/03/26 10:25:48;;;;;;;0.20;0.20;;;16.10;57.20;;;;;;4995230;28;20035;-80
2021/03/26 10:28:33;;;;;;;0.10;0.10;;;16.30;57.00;;;;;;4979573;28;20053;-82
2021/03/26 10:31:03;;;;;;;1.17;0.00;;;16.50;56.70;;;;;;5008742;28;20027;-80
2021/03/26 10:33:31;;;;;;;0.20;0.10;;;16.60;56.50;;;;;;4992083;28;20379;-81
2021/03/26 10:35:59;;;;;;;0.00;0.00;;;16.70;56.40;;;;;;4994837;28;20030;-81
2021/03/26 10:38:43;;;;;;;0.20;0.00;;;16.80;56.40;;;;;;4975170;28;20039;-81
2021/03/26 10:41:32;;;;;;;0.03;0.00;;;16.90;56.30;;;;;;4986697;28;20039;-80
2021/03/26 10:44:05;;;;;;;0.10;0.00;;;17.00;56.20;;;;;;4994399;28;20022;-81
2021/03/26 10:46:37;;;;;;;0.00;0.00;;;17.00;56.00;;;;;;4994243;28;20042;-81
2021/03/26 10:49:13;;;;;;;0.70;0.10;;;16.90;56.00;;;;;;4994727;28;20026;-81
2021/03/26 10:51:56;;;;;;;0.77;0.08;;;16.90;56.00;;;;;;4978408;28;20030;-81
2021/03/26 10:54:44;;;;;;;0.10;0.00;;;17.00;55.90;;;;;;5012675;28;20031;-81
2021/03/26 10:57:38;;;;;;;0.00;0.00;;;17.10;55.80;;;;;;4994531;28;20415;-81
2021/03/26 11:00:21;;;;;;;0.00;0.00;;;17.30;55.50;;;;;;4980713;28;20034;-82
2021/03/26 11:03:09;;;;;;;0.38;0.15;;;17.50;55.20;;;;;;4979488;28;20332;-81
2021/03/26 11:05:41;;;;;;;11.50;0.10;;;17.80;55.00;;;;;;4978291;28;20114;-83
2021/03/26 11:08:15;;;;;;;0.22;0.10;;;18.00;54.60;;;;;;4994178;28;20057;-81
2021/03/26 11:11:06;;;;;;;0.25;0.08;;;18.10;54.30;;;;;;4994322;28;20390;-81
2021/03/26 11:13:53;;;;;;;0.10;0.00;;;18.20;54.10;;;;;;5013436;28;20482;-81
2021/03/26 11:16:31;;;;;;;0.10;0.00;;;18.30;54.00;;;;;;4979562;28;20490;-82
2021/03/26 11:19:19;;;;;;;0.10;0.00;;;18.30;54.00;;;;;;4993727;28;20026;-81
2021/03/26 11:21:47;;;;;;;0.00;0.00;;;18.20;54.00;;;;;;4953376;29;20299;-81
2021/03/26 11:24:13;;;;;;;0.00;0.00;;;18.30;54.00;;;;;;4938288;29;20050;-82
2021/03/26 11:26:42;;;;;;;0.10;0.05;;;18.30;53.90;;;;;;4922225;29;20046;-81
2021/03/26 11:29:19;;;;;;;2.90;0.60;;;18.20;53.90;;;;;;4938533;29;20054;-81
2021/03/26 11:32:02;;;;;;;0.15;0.05;;;18.10;54.00;;;;;;4937418;28;20027;-82
2021/03/26 11:34:59;;;;;;;0.10;0.00;;;18.10;53.90;;;;;;4956109;28;20168;-81
2021/03/26 11:37:35;;;;;;;0.00;0.00;;;18.30;53.70;;;;;;4911273;28;20037;-82
2021/03/26 11:40:12;;;;;;;0.32;0.00;;;18.50;53.30;;;;;;4922686;28;20035;-81
2021/03/26 11:42:55;;;;;;;0.10;0.00;;;18.60;53.00;;;;;;4919009;29;20031;-81
2021/03/26 11:45:37;;;;;;;0.00;0.00;;;18.70;52.80;;;;;;4937457;28;20058;-81
2021/03/26 11:48:12;;;;;;;0.08;0.00;;;18.70;52.70;;;;;;4918698;29;20043;-81
2021/03/26 11:51:13;;;;;;;0.10;0.00;;;18.70;52.60;;;;;;4949020;28;20428;-81
2021/03/26 11:54:07;;;;;;;0.22;0.00;;;18.80;52.50;;;;;;4895164;29;20044;-81
2021/03/26 11:56:39;;;;;;;1.55;0.20;;;19.00;52.40;;;;;;4881221;29;20035;-81
2021/03/26 11:59:16;;;;;;;0.00;0.00;;;19.10;52.20;;;;;;4923815;29;20050;-81
2021/03/26 12:02:03;;;;;;;0.00;0.00;;;19.10;52.60;;;;;;4933394;28;20031;-81
2021/03/26 12:04:38;;;;;;;0.00;0.00;;;19.10;52.00;;;;;;4933952;29;20148;-81
2021/03/26 12:07:44;;;;;;;0.03;0.03;;;19.00;52.00;;;;;;4935957;28;20533;-81
2021/03/26 12:10:20;;;;;;;14.05;0.30;;;19.00;52.10;;;;;;4932379;28;20393;-82
2021/03/26 12:12:49;;;;;;;0.95;0.10;;;18.90;52.20;;;;;;4929544;29;20032;-81
2021/03/26 12:15:27;;;;;;;0.00;0.00;;;18.80;52.20;;;;;;4931830;28;20046;-82
2021/03/26 12:18:28;;;;;;;0.03;0.03;;;18.70;52.30;;;;;;4916114;29;20508;-81
2021/03/26 12:21:29;;;;;;;0.05;0.00;;;18.60;52.40;;;;;;4928157;29;20495;-82
2021/03/26 12:24:35;;;;;;;0.55;0.10;;;18.50;52.40;;;;;;4924040;29;20035;-80
2021/03/26 12:27:12;;;;;;;0.10;0.00;;;18.40;52.60;;;;;;4920676;29;20040;-80
2021/03/26 12:29:44;;;;;;;0.13;0.03;;;18.30;52.70;;;;;;4911141;29;20051;-80
2021/03/26 12:32:32;;;;;;;0.00;0.00;;;18.10;52.80;;;;;;4936221;28;20604;-81
2021/03/26 12:35:00;;;;;;;0.40;0.00;;;17.90;53.00;;;;;;4938390;29;20027;-81
2021/03/26 12:37:48;;;;;;;0.00;0.00;;;17.80;53.20;;;;;;4937324;29;20520;-80
2021/03/26 12:40:23;;;;;;;0.70;0.20;;;17.70;53.30;;;;;;4937519;28;20142;-81
2021/03/26 12:42:56;;;;;;;3.10;0.43;;;17.60;53.40;;;;;;4951741;28;20035;-81
2021/03/26 12:45:25;;;;;;;0.00;0.00;;;17.60;53.40;;;;;;4936822;28;20059;-80
2021/03/26 12:48:02;;;;;;;0.00;0.00;;;17.60;53.90;;;;;;4990025;28;20415;-80
2021/03/26 12:50:34;;;;;;;0.32;0.20;;;17.60;53.20;;;;;;4992628;28;20023;-81
2021/03/26 12:53:34;;;;;;;0.00;0.00;;;17.60;53.20;;;;;;4974836;28;20031;-81
2021/03/26 12:56:15;;;;;;;0.20;0.10;;;17.60;53.20;;;;;;4992760;28;20045;-80
2021/03/26 12:58:56;;;;;;;0.00;0.00;;;17.70;53.00;;;;;;4992359;28;20032;-80
2021/03/26 13:01:39;;;;;;;;;;;17.70;52.90;;;;;;4981951;28;20033;-79
2021/03/26 13:04:43;;;;;;;0.35;0.00;;;17.70;53.50;;;;;;4996647;28;19909;-79
2021/03/26 13:07:33;;;;;;;0.20;0.10;;;17.60;52.90;;;;;;4996975;28;20041;-82
2021/03/26 13:10:33;;;;;;;0.30;0.00;;;17.60;52.90;;;;;;4994590;28;20034;-79
2021/03/26 13:13:09;;;;;;;0.00;0.00;;;17.60;53.00;;;;;;4995279;28;20026;-81
2021/03/26 13:15:36;;;;;;;0.00;0.00;;;17.50;52.90;;;;;;4994396;28;20030;-79
2021/03/26 13:18:12;;;;;;;0.00;0.00;;;17.50;53.00;;;;;;4996287;28;20033;-80
2021/03/26 13:21:06;;;;;;;0.03;0.03;;;17.40;53.00;;;;;;4996333;28;20030;-79
2021/03/26 13:23:33;;;;;;;4.07;0.20;;;17.30;53.10;;;;;;4996170;28;20378;-78
2021/03/26 13:26:02;;;;;;;6.07;0.15;;;17.30;53.10;;;;;;4995747;28;20033;-79
2021/03/26 13:28:42;;;;;;;0.43;0.10;;;17.30;53.10;;;;;;4996088;28;20415;-79
2021/03/26 13:31:16;;;;;;;0.13;0.00;;;17.30;53.00;;;;;;4995688;28;20041;-79
2021/03/26 13:33:45;;;;;;;0.80;0.10;;;17.40;52.90;;;;;;4963406;28;20045;-81
2021/03/26 13:36:24;;;;;;;0.00;0.00;;;17.40;52.90;;;;;;4996106;28;20026;-80
2021/03/26 13:38:59;;;;;;;2.45;0.05;;;17.40;52.90;;;;;;4995836;28;20041;-79
2021/03/26 13:41:46;;;;;;;0.88;0.32;;;17.30;52.90;;;;;;4996613;28;20026;-81
2021/03/26 13:44:20;;;;;;;0.10;0.00;;;17.30;52.90;;;;;;4995699;28;20045;-80
2021/03/26 13:46:48;;;;;;;5.05;0.10;;;17.20;53.00;;;;;;4995574;28;20031;-81